sensor_id;sensor_type;location;lat;lon;timestamp;pressure;altitude;pressure_sealevel;temperature
17716;BMP280;50159;49.426;11.182;2023-07-09T00:01:57;97962.69;;;18.58
17716;BMP280;50159;49.426;11.182;2023-07-09T00:04:24;97979.81;;;18.54
17716;BMP280;50159;49.426;11.182;2023-07-09T00:06:52;97979.81;;;18.54
17716;BMP280;50159;49.426;11.182;2023-07-09T00:09:21;97979.81;;;18.54
17716;BMP280;50159;49.426;11.182;2023-07-09T00:11:49;97979.13;;;18.52
17716;BMP280;50159;49.426;11.182;2023-07-09T00:14:17;97978.47;;;18.50
17716;BMP280;50159;49.426;11.182;2023-07-09T00:16:45;97985.69;;;18.48
17716;BMP280;50159;49.426;11.182;2023-07-09T00:19:22;97977.47;;;18.43
17716;BMP280;50159;49.426;11.182;2023-07-09T00:21:56;97982.38;;;18.38
17716;BMP280;50159;49.426;11.182;2023-07-09T00:24:22;97985.34;;;18.35
17716;BMP280;50159;49.426;11.182;2023-07-09T00:26:50;97984.66;;;18.33
17716;BMP280;50159;49.426;11.182;2023-07-09T00:29:17;97990.44;;;18.29
17716;BMP280;50159;49.426;11.182;2023-07-09T00:31:44;97984.63;;;18.25
17716;BMP280;50159;49.426;11.182;2023-07-09T00:34:14;97985.13;;;18.21
17716;BMP280;50159;49.426;11.182;2023-07-09T00:36:46;97983.63;;;18.18
17716;BMP280;50159;49.426;11.182;2023-07-09T00:39:17;97988.25;;;18.17
17716;BMP280;50159;49.426;11.182;2023-07-09T00:41:45;97984.09;;;18.14
17716;BMP280;50159;49.426;11.182;2023-07-09T00:49:34;97986.88;;;18.05
17716;BMP280;50159;49.426;11.182;2023-07-09T00:52:23;97986.81;;;17.97
17716;BMP280;50159;49.426;11.182;2023-07-09T00:54:53;97992.69;;;17.91
17716;BMP280;50159;49.426;11.182;2023-07-09T00:57:23;97990.50;;;17.87
17716;BMP280;50159;49.426;11.182;2023-07-09T01:00:00;97991.66;;;17.84
17716;BMP280;50159;49.426;11.182;2023-07-09T01:02:35;97992.28;;;17.78
17716;BMP280;50159;49.426;11.182;2023-07-09T01:05:03;97990.59;;;17.77
17716;BMP280;50159;49.426;11.182;2023-07-09T01:07:33;97992.56;;;17.75
17716;BMP280;50159;49.426;11.182;2023-07-09T01:10:01;97989.28;;;17.73
17716;BMP280;50159;49.426;11.182;2023-07-09T01:12:29;97987.63;;;17.72
17716;BMP280;50159;49.426;11.182;2023-07-09T01:14:58;97988.44;;;17.73
17716;BMP280;50159;49.426;11.182;2023-07-09T01:17:28;97994.03;;;17.70
17716;BMP280;50159;49.426;11.182;2023-07-09T01:19:56;97987.44;;;17.66
17716;BMP280;50159;49.426;11.182;2023-07-09T01:22:23;97990.34;;;17.63
17716;BMP280;50159;49.426;11.182;2023-07-09T01:24:59;97987.22;;;17.60
17716;BMP280;50159;49.426;11.182;2023-07-09T01:30:11;97987.53;;;17.57
17716;BMP280;50159;49.426;11.182;2023-07-09T01:32:41;97993.94;;;17.54
17716;BMP280;50159;49.426;11.182;2023-07-09T01:35:14;97989.13;;;17.50
17716;BMP280;50159;49.426;11.182;2023-07-09T01:37:43;97984.50;;;17.44
17716;BMP280;50159;49.426;11.182;2023-07-09T01:40:13;97989.34;;;17.39
17716;BMP280;50159;49.426;11.182;2023-07-09T01:42:58;97992.63;;;17.33
17716;BMP280;50159;49.426;11.182;2023-07-09T01:45:26;98004.44;;;17.29
17716;BMP280;50159;49.426;11.182;2023-07-09T01:47:54;98008.31;;;17.26
17716;BMP280;50159;49.426;11.182;2023-07-09T01:50:22;98003.53;;;17.21
17716;BMP280;50159;49.426;11.182;2023-07-09T01:52:52;97994.97;;;17.19
17716;BMP280;50159;49.426;11.182;2023-07-09T01:55:20;98002.03;;;17.19
17716;BMP280;50159;49.426;11.182;2023-07-09T01:57:47;98006.91;;;17.14
17716;BMP280;50159;49.426;11.182;2023-07-09T02:00:16;98006.91;;;17.14
17716;BMP280;50159;49.426;11.182;2023-07-09T02:02:46;98011.00;;;16.99
17716;BMP280;50159;49.426;11.182;2023-07-09T02:05:17;98010.66;;;16.94
17716;BMP280;50159;49.426;11.182;2023-07-09T02:07:46;98012.06;;;16.89
17716;BMP280;50159;49.426;11.182;2023-07-09T02:10:16;98013.84;;;16.88
17716;BMP280;50159;49.426;11.182;2023-07-09T02:12:44;98021.06;;;16.86
17716;BMP280;50159;49.426;11.182;2023-07-09T02:15:11;98018.28;;;16.88
17716;BMP280;50159;49.426;11.182;2023-07-09T02:17:39;98016.63;;;16.87
17716;BMP280;50159;49.426;11.182;2023-07-09T02:20:07;98015.81;;;16.86
17716;BMP280;50159;49.426;11.182;2023-07-09T02:22:37;98011.53;;;16.85
17716;BMP280;50159;49.426;11.182;2023-07-09T02:25:05;98016.94;;;16.84
17716;BMP280;50159;49.426;11.182;2023-07-09T02:27:33;98014.31;;;16.84
17716;BMP280;50159;49.426;11.182;2023-07-09T02:30:00;98012.81;;;16.81
17716;BMP280;50159;49.426;11.182;2023-07-09T02:32:27;98018.06;;;16.81
17716;BMP280;50159;49.426;11.182;2023-07-09T02:34:55;98009.53;;;16.80
17716;BMP280;50159;49.426;11.182;2023-07-09T02:37:25;98027.91;;;16.80
17716;BMP280;50159;49.426;11.182;2023-07-09T02:39:53;98022.94;;;16.77
17716;BMP280;50159;49.426;11.182;2023-07-09T02:42:23;98021.00;;;16.79
17716;BMP280;50159;49.426;11.182;2023-07-09T02:44:50;98024.72;;;16.76
17716;BMP280;50159;49.426;11.182;2023-07-09T02:47:18;98022.09;;;16.76
17716;BMP280;50159;49.426;11.182;2023-07-09T02:49:46;98027.50;;;16.75
17716;BMP280;50159;49.426;11.182;2023-07-09T02:52:13;98019.25;;;16.70
17716;BMP280;50159;49.426;11.182;2023-07-09T02:54:40;98019.56;;;16.67
17716;BMP280;50159;49.426;11.182;2023-07-09T02:57:07;98017.22;;;16.64
17716;BMP280;50159;49.426;11.182;2023-07-09T02:59:34;98026.22;;;16.61
17716;BMP280;50159;49.426;11.182;2023-07-09T03:02:02;98031.63;;;16.60
17716;BMP280;50159;49.426;11.182;2023-07-09T03:04:29;98036.06;;;16.59
17716;BMP280;50159;49.426;11.182;2023-07-09T03:06:58;98036.22;;;16.58
17716;BMP280;50159;49.426;11.182;2023-07-09T03:09:26;98037.47;;;16.54
17716;BMP280;50159;49.426;11.182;2023-07-09T03:11:53;98034.31;;;16.51
17716;BMP280;50159;49.426;11.182;2023-07-09T03:14:20;98036.41;;;16.47
17716;BMP280;50159;49.426;11.182;2023-07-09T03:16:47;98034.59;;;16.48
17716;BMP280;50159;49.426;11.182;2023-07-09T03:19:14;98039.31;;;16.44
17716;BMP280;50159;49.426;11.182;2023-07-09T03:21:41;98035.34;;;16.40
17716;BMP280;50159;49.426;11.182;2023-07-09T03:24:08;98041.84;;;16.36
17716;BMP280;50159;49.426;11.182;2023-07-09T03:26:35;98042.16;;;16.34
17716;BMP280;50159;49.426;11.182;2023-07-09T03:29:02;98038.84;;;16.32
17716;BMP280;50159;49.426;11.182;2023-07-09T03:31:30;98048.53;;;16.31
17716;BMP280;50159;49.426;11.182;2023-07-09T03:33:57;98048.38;;;16.33
17716;BMP280;50159;49.426;11.182;2023-07-09T03:36:24;98052.66;;;16.34
17716;BMP280;50159;49.426;11.182;2023-07-09T03:38:51;98051.66;;;16.35
17716;BMP280;50159;49.426;11.182;2023-07-09T03:41:18;98049.03;;;16.35
17716;BMP280;50159;49.426;11.182;2023-07-09T03:43:45;98052.66;;;16.34
17716;BMP280;50159;49.426;11.182;2023-07-09T03:46:12;98044.63;;;16.35
17716;BMP280;50159;49.426;11.182;2023-07-09T03:48:39;98049.34;;;16.32
17716;BMP280;50159;49.426;11.182;2023-07-09T03:51:06;98054.19;;;16.27
17716;BMP280;50159;49.426;11.182;2023-07-09T03:53:33;98053.81;;;16.22
17716;BMP280;50159;49.426;11.182;2023-07-09T03:56:00;98053.13;;;16.20
17716;BMP280;50159;49.426;11.182;2023-07-09T03:58:28;98050.66;;;16.18
17716;BMP280;50159;49.426;11.182;2023-07-09T04:00:55;98060.03;;;16.21
17716;BMP280;50159;49.426;11.182;2023-07-09T04:03:23;98060.72;;;16.23
17716;BMP280;50159;49.426;11.182;2023-07-09T04:05:51;98055.16;;;16.26
17716;BMP280;50159;49.426;11.182;2023-07-09T04:08:18;98049.91;;;16.26
17716;BMP280;50159;49.426;11.182;2023-07-09T04:10:45;98053.25;;;16.28
17716;BMP280;50159;49.426;11.182;2023-07-09T04:13:12;98057.38;;;16.30
17716;BMP280;50159;49.426;11.182;2023-07-09T04:15:39;98059.53;;;16.35
17716;BMP280;50159;49.426;11.182;2023-07-09T04:18:06;98064.50;;;16.37
17716;BMP280;50159;49.426;11.182;2023-07-09T04:20:33;98061.16;;;16.45
17716;BMP280;50159;49.426;11.182;2023-07-09T04:23:01;98067.19;;;16.55
17716;BMP280;50159;49.426;11.182;2023-07-09T04:25:28;98065.78;;;16.60
17716;BMP280;50159;49.426;11.182;2023-07-09T04:27:56;98067.00;;;16.65
17716;BMP280;50159;49.426;11.182;2023-07-09T04:30:23;98067.06;;;16.73
17716;BMP280;50159;49.426;11.182;2023-07-09T04:32:49;98075.34;;;16.78
17716;BMP280;50159;49.426;11.182;2023-07-09T04:35:16;98072.94;;;16.84
17716;BMP280;50159;49.426;11.182;2023-07-09T04:37:43;98073.03;;;16.92
17716;BMP280;50159;49.426;11.182;2023-07-09T04:40:12;98073.09;;;17.00
17716;BMP280;50159;49.426;11.182;2023-07-09T04:42:39;98076.84;;;17.07
17716;BMP280;50159;49.426;11.182;2023-07-09T04:45:09;98069.00;;;17.15
17716;BMP280;50159;49.426;11.182;2023-07-09T04:47:38;98073.38;;;17.24
17716;BMP280;50159;49.426;11.182;2023-07-09T04:50:07;98071.97;;;17.29
17716;BMP280;50159;49.426;11.182;2023-07-09T04:52:35;98076.75;;;17.33
17716;BMP280;50159;49.426;11.182;2023-07-09T04:55:02;98083.03;;;17.40
17716;BMP280;50159;49.426;11.182;2023-07-09T04:57:29;98080.50;;;17.48
17716;BMP280;50159;49.426;11.182;2023-07-09T04:59:56;98080.25;;;17.59
17716;BMP280;50159;49.426;11.182;2023-07-09T05:02:23;98081.00;;;17.69
17716;BMP280;50159;49.426;11.182;2023-07-09T05:04:50;98082.69;;;17.77
17716;BMP280;50159;49.426;11.182;2023-07-09T05:07:18;98081.78;;;17.86
17716;BMP280;50159;49.426;11.182;2023-07-09T05:09:45;98083.69;;;17.94
17716;BMP280;50159;49.426;11.182;2023-07-09T05:12:11;98087.19;;;18.02
17716;BMP280;50159;49.426;11.182;2023-07-09T05:14:39;98084.94;;;18.07
17716;BMP280;50159;49.426;11.182;2023-07-09T05:17:06;98084.66;;;18.17
17716;BMP280;50159;49.426;11.182;2023-07-09T05:19:34;98086.72;;;18.31
17716;BMP280;50159;49.426;11.182;2023-07-09T05:22:01;98084.63;;;18.42
17716;BMP280;50159;49.426;11.182;2023-07-09T05:24:27;98078.72;;;18.48
17716;BMP280;50159;49.426;11.182;2023-07-09T05:26:55;98077.28;;;18.61
17716;BMP280;50159;49.426;11.182;2023-07-09T05:29:25;98086.72;;;18.72
17716;BMP280;50159;49.426;11.182;2023-07-09T05:31:52;98084.50;;;18.84
17716;BMP280;50159;49.426;11.182;2023-07-09T05:34:19;98089.31;;;18.97
17716;BMP280;50159;49.426;11.182;2023-07-09T05:36:46;98089.50;;;19.11
17716;BMP280;50159;49.426;11.182;2023-07-09T05:39:13;98083.78;;;19.23
17716;BMP280;50159;49.426;11.182;2023-07-09T05:41:40;98079.19;;;19.33
17716;BMP280;50159;49.426;11.182;2023-07-09T05:44:07;98080.16;;;19.48
17716;BMP280;50159;49.426;11.182;2023-07-09T05:46:36;98082.97;;;19.62
17716;BMP280;50159;49.426;11.182;2023-07-09T05:49:05;98079.53;;;19.77
17716;BMP280;50159;49.426;11.182;2023-07-09T05:51:33;98083.31;;;19.90
17716;BMP280;50159;49.426;11.182;2023-07-09T05:53:59;98085.13;;;20.05
17716;BMP280;50159;49.426;11.182;2023-07-09T05:56:27;98085.09;;;20.21
17716;BMP280;50159;49.426;11.182;2023-07-09T05:58:54;98076.47;;;20.35
17716;BMP280;50159;49.426;11.182;2023-07-09T06:01:20;98086.38;;;20.48
17716;BMP280;50159;49.426;11.182;2023-07-09T06:03:48;98087.31;;;20.63
17716;BMP280;50159;49.426;11.182;2023-07-09T06:06:15;98081.28;;;20.77
17716;BMP280;50159;49.426;11.182;2023-07-09T06:08:43;98084.88;;;20.91
17716;BMP280;50159;49.426;11.182;2023-07-09T06:11:10;98085.16;;;21.04
17716;BMP280;50159;49.426;11.182;2023-07-09T06:13:36;98093.97;;;21.19
17716;BMP280;50159;49.426;11.182;2023-07-09T06:16:04;98091.25;;;21.34
17716;BMP280;50159;49.426;11.182;2023-07-09T06:18:32;98099.09;;;21.50
17716;BMP280;50159;49.426;11.182;2023-07-09T06:21:01;98096.97;;;21.68
17716;BMP280;50159;49.426;11.182;2023-07-09T06:23:29;98097.47;;;21.85
17716;BMP280;50159;49.426;11.182;2023-07-09T06:25:56;98089.22;;;22.02
17716;BMP280;50159;49.426;11.182;2023-07-09T06:28:26;98089.94;;;22.19
17716;BMP280;50159;49.426;11.182;2023-07-09T06:30:55;98094.50;;;22.39
17716;BMP280;50159;49.426;11.182;2023-07-09T06:33:25;98089.88;;;22.55
17716;BMP280;50159;49.426;11.182;2023-07-09T06:36:01;98094.44;;;22.75
17716;BMP280;50159;49.426;11.182;2023-07-09T06:38:29;98101.28;;;22.98
17716;BMP280;50159;49.426;11.182;2023-07-09T06:40:57;98107.66;;;23.17
17716;BMP280;50159;49.426;11.182;2023-07-09T06:43:24;98105.78;;;23.32
17716;BMP280;50159;49.426;11.182;2023-07-09T06:45:54;98109.88;;;23.49
17716;BMP280;50159;49.426;11.182;2023-07-09T06:48:22;98108.25;;;23.68
17716;BMP280;50159;49.426;11.182;2023-07-09T06:50:52;98106.78;;;23.86
17716;BMP280;50159;49.426;11.182;2023-07-09T06:53:21;98099.84;;;24.06
17716;BMP280;50159;49.426;11.182;2023-07-09T06:55:48;98109.38;;;24.21
17716;BMP280;50159;49.426;11.182;2023-07-09T06:58:17;98106.03;;;24.40
17716;BMP280;50159;49.426;11.182;2023-07-09T07:00:45;98109.22;;;24.56
17716;BMP280;50159;49.426;11.182;2023-07-09T07:03:12;98106.69;;;24.75
17716;BMP280;50159;49.426;11.182;2023-07-09T07:05:47;98099.47;;;24.96
17716;BMP280;50159;49.426;11.182;2023-07-09T07:08:22;98098.69;;;25.08
17716;BMP280;50159;49.426;11.182;2023-07-09T07:10:58;98096.50;;;25.18
17716;BMP280;50159;49.426;11.182;2023-07-09T07:13:31;98100.63;;;25.33
17716;BMP280;50159;49.426;11.182;2023-07-09T07:15:58;98096.19;;;25.46
17716;BMP280;50159;49.426;11.182;2023-07-09T07:18:25;98106.88;;;25.59
17716;BMP280;50159;49.426;11.182;2023-07-09T07:20:52;98104.88;;;25.74
17716;BMP280;50159;49.426;11.182;2023-07-09T07:23:19;98107.13;;;25.89
17716;BMP280;50159;49.426;11.182;2023-07-09T07:25:47;98096.94;;;26.06
17716;BMP280;50159;49.426;11.182;2023-07-09T07:28:15;98105.94;;;26.24
17716;BMP280;50159;49.426;11.182;2023-07-09T07:30:42;98102.84;;;26.39
17716;BMP280;50159;49.426;11.182;2023-07-09T07:33:10;98099.16;;;26.53
17716;BMP280;50159;49.426;11.182;2023-07-09T07:35:38;98095.44;;;26.67
17716;BMP280;50159;49.426;11.182;2023-07-09T07:38:25;98096.66;;;26.83
17716;BMP280;50159;49.426;11.182;2023-07-09T07:40:53;98091.28;;;26.96
17716;BMP280;50159;49.426;11.182;2023-07-09T07:43:21;98093.09;;;27.08
17716;BMP280;50159;49.426;11.182;2023-07-09T07:45:48;98095.13;;;27.19
17716;BMP280;50159;49.426;11.182;2023-07-09T07:48:15;98099.16;;;27.34
17716;BMP280;50159;49.426;11.182;2023-07-09T07:50:43;98085.31;;;27.50
17716;BMP280;50159;49.426;11.182;2023-07-09T07:53:12;98090.34;;;27.64
17716;BMP280;50159;49.426;11.182;2023-07-09T07:55:41;98091.13;;;27.77
17716;BMP280;50159;49.426;11.182;2023-07-09T07:58:13;98081.97;;;27.91
17716;BMP280;50159;49.426;11.182;2023-07-09T08:00:40;98082.50;;;28.06
17716;BMP280;50159;49.426;11.182;2023-07-09T08:03:07;98076.38;;;28.23
17716;BMP280;50159;49.426;11.182;2023-07-09T08:05:34;98081.19;;;28.38
17716;BMP280;50159;49.426;11.182;2023-07-09T08:08:00;98083.53;;;28.53
17716;BMP280;50159;49.426;11.182;2023-07-09T08:10:27;98083.09;;;28.56
17716;BMP280;50159;49.426;11.182;2023-07-09T08:12:54;98087.13;;;28.64
17716;BMP280;50159;49.426;11.182;2023-07-09T08:15:24;98078.94;;;28.77
17716;BMP280;50159;49.426;11.182;2023-07-09T08:17:51;98083.16;;;28.91
17716;BMP280;50159;49.426;11.182;2023-07-09T08:20:18;98082.56;;;29.06
17716;BMP280;50159;49.426;11.182;2023-07-09T08:22:45;98070.66;;;29.20
17716;BMP280;50159;49.426;11.182;2023-07-09T08:25:13;98068.63;;;29.33
17716;BMP280;50159;49.426;11.182;2023-07-09T08:27:40;98070.53;;;29.44
17716;BMP280;50159;49.426;11.182;2023-07-09T08:30:07;98067.78;;;29.50
17716;BMP280;50159;49.426;11.182;2023-07-09T08:32:34;98068.94;;;29.54
17716;BMP280;50159;49.426;11.182;2023-07-09T08:35:01;98074.25;;;29.61
17716;BMP280;50159;49.426;11.182;2023-07-09T08:37:48;98061.81;;;29.77
17716;BMP280;50159;49.426;11.182;2023-07-09T08:40:16;98063.00;;;29.92
17716;BMP280;50159;49.426;11.182;2023-07-09T08:42:47;98053.69;;;29.95
17716;BMP280;50159;49.426;11.182;2023-07-09T08:45:50;98053.53;;;30.08
17716;BMP280;50159;49.426;11.182;2023-07-09T08:48:33;98062.41;;;30.19
17716;BMP280;50159;49.426;11.182;2023-07-09T08:51:12;98055.63;;;30.28
17716;BMP280;50159;49.426;11.182;2023-07-09T08:53:52;98054.59;;;30.40
17716;BMP280;50159;49.426;11.182;2023-07-09T08:56:22;98060.94;;;30.57
17716;BMP280;50159;49.426;11.182;2023-07-09T08:58:52;98054.75;;;30.68
17716;BMP280;50159;49.426;11.182;2023-07-09T09:01:38;98049.13;;;30.81
17716;BMP280;50159;49.426;11.182;2023-07-09T09:04:27;98060.06;;;30.90
17716;BMP280;50159;49.426;11.182;2023-07-09T09:07:18;98063.53;;;31.02
17716;BMP280;50159;49.426;11.182;2023-07-09T09:10:02;98057.84;;;31.10
17716;BMP280;50159;49.426;11.182;2023-07-09T09:12:46;98064.59;;;31.24
17716;BMP280;50159;49.426;11.182;2023-07-09T09:15:20;98058.94;;;31.36
17716;BMP280;50159;49.426;11.182;2023-07-09T09:20:36;98056.03;;;31.54
17716;BMP280;50159;49.426;11.182;2023-07-09T09:23:15;98047.63;;;31.62
17716;BMP280;50159;49.426;11.182;2023-07-09T09:25:52;98050.75;;;31.70
17716;BMP280;50159;49.426;11.182;2023-07-09T09:28:38;98043.09;;;31.78
17716;BMP280;50159;49.426;11.182;2023-07-09T09:31:05;98047.44;;;31.96
17716;BMP280;50159;49.426;11.182;2023-07-09T09:33:42;98043.47;;;32.14
17716;BMP280;50159;49.426;11.182;2023-07-09T09:36:23;98050.50;;;32.31
17716;BMP280;50159;49.426;11.182;2023-07-09T09:38:51;98052.78;;;32.39
17716;BMP280;50159;49.426;11.182;2023-07-09T09:41:25;98051.06;;;32.33
17716;BMP280;50159;49.426;11.182;2023-07-09T09:43:56;98048.19;;;32.40
17716;BMP280;50159;49.426;11.182;2023-07-09T09:46:45;98053.28;;;32.36
17716;BMP280;50159;49.426;11.182;2023-07-09T09:49:14;98043.13;;;32.43
17716;BMP280;50159;49.426;11.182;2023-07-09T09:51:45;98041.16;;;32.55
17716;BMP280;50159;49.426;11.182;2023-07-09T09:54:28;98046.56;;;32.71
17716;BMP280;50159;49.426;11.182;2023-07-09T09:56:57;98043.69;;;32.77
17716;BMP280;50159;49.426;11.182;2023-07-09T09:59:33;98041.28;;;32.81
17716;BMP280;50159;49.426;11.182;2023-07-09T10:02:23;98048.09;;;32.83
17716;BMP280;50159;49.426;11.182;2023-07-09T10:04:51;98044.47;;;32.94
17716;BMP280;50159;49.426;11.182;2023-07-09T10:07:30;98047.13;;;33.10
17716;BMP280;50159;49.426;11.182;2023-07-09T10:10:00;98042.47;;;33.27
17716;BMP280;50159;49.426;11.182;2023-07-09T10:12:52;98040.41;;;33.33
17716;BMP280;50159;49.426;11.182;2023-07-09T10:16:04;98033.38;;;33.54
17716;BMP280;50159;49.426;11.182;2023-07-09T10:19:20;98035.22;;;33.74
17716;BMP280;50159;49.426;11.182;2023-07-09T10:28:19;98023.78;;;33.93
17716;BMP280;50159;49.426;11.182;2023-07-09T10:34:00;98020.50;;;34.12
17716;BMP280;50159;49.426;11.182;2023-07-09T10:39:50;98019.94;;;34.46
17716;BMP280;50159;49.426;11.182;2023-07-09T10:42:25;98009.72;;;34.53
17716;BMP280;50159;49.426;11.182;2023-07-09T10:45:10;98013.84;;;34.60
17716;BMP280;50159;49.426;11.182;2023-07-09T10:47:44;98015.28;;;34.72
17716;BMP280;50159;49.426;11.182;2023-07-09T10:50:41;98013.13;;;34.74
17716;BMP280;50159;49.426;11.182;2023-07-09T10:53:47;98013.44;;;34.83
17716;BMP280;50159;49.426;11.182;2023-07-09T10:56:24;98013.00;;;34.95
17716;BMP280;50159;49.426;11.182;2023-07-09T10:59:11;98006.25;;;35.03
17716;BMP280;50159;49.426;11.182;2023-07-09T11:01:45;97999.00;;;35.08
17716;BMP280;50159;49.426;11.182;2023-07-09T11:04:37;97998.06;;;34.93
17716;BMP280;50159;49.426;11.182;2023-07-09T11:07:12;97998.91;;;34.93
17716;BMP280;50159;49.426;11.182;2023-07-09T11:09:44;97987.88;;;35.05
17716;BMP280;50159;49.426;11.182;2023-07-09T11:12:22;97984.66;;;35.13
17716;BMP280;50159;49.426;11.182;2023-07-09T11:15:10;97989.84;;;35.24
17716;BMP280;50159;49.426;11.182;2023-07-09T11:17:42;97983.91;;;35.27
17716;BMP280;50159;49.426;11.182;2023-07-09T11:20:44;97983.47;;;35.44
17716;BMP280;50159;49.426;11.182;2023-07-09T11:23:24;97987.53;;;35.61
17716;BMP280;50159;49.426;11.182;2023-07-09T11:26:20;97984.63;;;35.87
17716;BMP280;50159;49.426;11.182;2023-07-09T11:28:53;97981.28;;;35.56
17716;BMP280;50159;49.426;11.182;2023-07-09T11:31:25;97992.66;;;35.53
17716;BMP280;50159;49.426;11.182;2023-07-09T11:36:46;97968.31;;;35.78
17716;BMP280;50159;49.426;11.182;2023-07-09T11:42:32;97969.44;;;35.82
17716;BMP280;50159;49.426;11.182;2023-07-09T11:45:12;97966.16;;;35.70
17716;BMP280;50159;49.426;11.182;2023-07-09T11:47:54;97965.38;;;35.89
17716;BMP280;50159;49.426;11.182;2023-07-09T11:50:28;97964.28;;;36.14
17716;BMP280;50159;49.426;11.182;2023-07-09T11:53:01;97954.81;;;36.36
17716;BMP280;50159;49.426;11.182;2023-07-09T11:55:45;97961.81;;;36.52
17716;BMP280;50159;49.426;11.182;2023-07-09T11:58:16;97957.78;;;36.40
17716;BMP280;50159;49.426;11.182;2023-07-09T12:00:53;97952.91;;;36.42
17716;BMP280;50159;49.426;11.182;2023-07-09T12:03:29;97946.66;;;36.41
17716;BMP280;50159;49.426;11.182;2023-07-09T12:06:16;97945.03;;;36.50
17716;BMP280;50159;49.426;11.182;2023-07-09T12:08:46;97945.00;;;36.60
17716;BMP280;50159;49.426;11.182;2023-07-09T12:11:30;97941.72;;;36.73
17716;BMP280;50159;49.426;11.182;2023-07-09T12:14:12;97937.91;;;36.83
17716;BMP280;50159;49.426;11.182;2023-07-09T12:16:47;97932.97;;;36.90
17716;BMP280;50159;49.426;11.182;2023-07-09T12:19:20;97932.97;;;36.90
17716;BMP280;50159;49.426;11.182;2023-07-09T12:21:58;97930.31;;;36.80
17716;BMP280;50159;49.426;11.182;2023-07-09T12:24:29;97927.06;;;36.78
17716;BMP280;50159;49.426;11.182;2023-07-09T12:27:00;97915.09;;;36.94
17716;BMP280;50159;49.426;11.182;2023-07-09T12:29:30;97919.34;;;37.10
17716;BMP280;50159;49.426;11.182;2023-07-09T12:31:59;97907.31;;;37.25
17716;BMP280;50159;49.426;11.182;2023-07-09T12:34:26;97909.41;;;37.38
17716;BMP280;50159;49.426;11.182;2023-07-09T12:36:57;97922.03;;;37.62
17716;BMP280;50159;49.426;11.182;2023-07-09T12:39:27;97907.38;;;37.58
17716;BMP280;50159;49.426;11.182;2023-07-09T12:41:59;97917.72;;;37.04
17716;BMP280;50159;49.426;11.182;2023-07-09T12:44:35;97901.69;;;36.40
17716;BMP280;50159;49.426;11.182;2023-07-09T12:47:03;97893.09;;;35.84
17716;BMP280;50159;49.426;11.182;2023-07-09T12:49:38;97897.88;;;35.38
17716;BMP280;50159;49.426;11.182;2023-07-09T12:52:24;97891.06;;;35.16
17716;BMP280;50159;49.426;11.182;2023-07-09T12:54:59;97884.13;;;35.50
17716;BMP280;50159;49.426;11.182;2023-07-09T12:57:28;97894.97;;;35.94
17716;BMP280;50159;49.426;11.182;2023-07-09T12:59:56;97889.78;;;36.22
17716;BMP280;50159;49.426;11.182;2023-07-09T13:02:28;97885.41;;;36.45
17716;BMP280;50159;49.426;11.182;2023-07-09T13:05:06;97893.94;;;36.86
17716;BMP280;50159;49.426;11.182;2023-07-09T13:07:50;97895.44;;;37.17
17716;BMP280;50159;49.426;11.182;2023-07-09T13:10:27;97895.00;;;36.95
17716;BMP280;50159;49.426;11.182;2023-07-09T13:13:00;97886.50;;;36.49
17716;BMP280;50159;49.426;11.182;2023-07-09T13:18:06;97882.09;;;36.63
17716;BMP280;50159;49.426;11.182;2023-07-09T13:20:40;97883.66;;;36.83
17716;BMP280;50159;49.426;11.182;2023-07-09T13:23:24;97888.31;;;36.63
17716;BMP280;50159;49.426;11.182;2023-07-09T13:25:51;97892.91;;;36.73
17716;BMP280;50159;49.426;11.182;2023-07-09T13:28:29;97894.38;;;37.08
17716;BMP280;50159;49.426;11.182;2023-07-09T13:31:00;97879.78;;;37.46
17716;BMP280;50159;49.426;11.182;2023-07-09T13:33:29;97877.59;;;37.81
17716;BMP280;50159;49.426;11.182;2023-07-09T13:35:57;97872.91;;;37.54
17716;BMP280;50159;49.426;11.182;2023-07-09T13:38:24;97888.69;;;37.09
17716;BMP280;50159;49.426;11.182;2023-07-09T13:40:58;97872.34;;;37.19
17716;BMP280;50159;49.426;11.182;2023-07-09T13:43:33;97871.81;;;37.55
17716;BMP280;50159;49.426;11.182;2023-07-09T13:46:03;97875.59;;;37.64
17716;BMP280;50159;49.426;11.182;2023-07-09T13:48:33;97869.28;;;37.68
17716;BMP280;50159;49.426;11.182;2023-07-09T13:51:01;97874.84;;;37.86
17716;BMP280;50159;49.426;11.182;2023-07-09T13:53:32;97866.25;;;38.07
17716;BMP280;50159;49.426;11.182;2023-07-09T13:55:59;97876.69;;;38.23
17716;BMP280;50159;49.426;11.182;2023-07-09T13:58:27;97868.09;;;38.12
17716;BMP280;50159;49.426;11.182;2023-07-09T14:00:59;97860.78;;;37.79
17716;BMP280;50159;49.426;11.182;2023-07-09T14:03:35;97860.25;;;37.44
17716;BMP280;50159;49.426;11.182;2023-07-09T14:06:02;97855.25;;;37.23
17716;BMP280;50159;49.426;11.182;2023-07-09T14:08:29;97854.97;;;37.15
17716;BMP280;50159;49.426;11.182;2023-07-09T14:10:55;97848.22;;;37.18
17716;BMP280;50159;49.426;11.182;2023-07-09T14:13:24;97845.75;;;37.16
17716;BMP280;50159;49.426;11.182;2023-07-09T14:15:52;97844.84;;;37.35
17716;BMP280;50159;49.426;11.182;2023-07-09T14:18:22;97847.91;;;37.62
17716;BMP280;50159;49.426;11.182;2023-07-09T14:20:50;97852.06;;;37.82
17716;BMP280;50159;49.426;11.182;2023-07-09T14:23:19;97845.00;;;37.81
17716;BMP280;50159;49.426;11.182;2023-07-09T14:25:47;97839.38;;;38.01
17716;BMP280;50159;49.426;11.182;2023-07-09T14:28:19;97845.78;;;38.14
17716;BMP280;50159;49.426;11.182;2023-07-09T14:30:49;97840.81;;;38.67
17716;BMP280;50159;49.426;11.182;2023-07-09T14:33:20;97836.25;;;39.40
17716;BMP280;50159;49.426;11.182;2023-07-09T14:35:49;97840.59;;;41.01
17716;BMP280;50159;49.426;11.182;2023-07-09T14:38:25;97835.31;;;42.64
17716;BMP280;50159;49.426;11.182;2023-07-09T14:40:58;97830.88;;;44.17
17716;BMP280;50159;49.426;11.182;2023-07-09T14:43:26;97834.91;;;45.62
17716;BMP280;50159;49.426;11.182;2023-07-09T14:45:53;97834.91;;;45.62
17716;BMP280;50159;49.426;11.182;2023-07-09T14:48:20;97829.38;;;46.92
17716;BMP280;50159;49.426;11.182;2023-07-09T14:50:48;97829.38;;;46.92
17716;BMP280;50159;49.426;11.182;2023-07-09T14:53:22;61792.09;;;-132.92